This is the latest recevied weather packets stored in our database for station/object K9ZOG. If no packets are shown the sender has not sent any weather packets the latest 10 day(s).
| Time | Temp. | Humidity | Pressure | Rain* | Wind** | Luminosity | Snow |
|---|---|---|---|---|---|---|---|
| 1777941853 | 21.11° C | 57% | 997.2 hPa | 0 mm | - | 3 W/m² | - |
| 1777941553 | 21.11° C | 57% | 997.1 hPa | 0 mm | - | 5 W/m² | - |
| 1777941253 | 21.11° C | 56% | 997.3 hPa | 0 mm | - | 7 W/m² | - |
| 1777940952 | 21.67° C | 55% | 997.3 hPa | 0 mm | - | 12 W/m² | - |
| 1777940653 | 21.67° C | 54% | 997.2 hPa | 0 mm | - | 20 W/m² | - |
| 1777940353 | 21.67° C | 53% | 997.1 hPa | 0 mm | - | 22 W/m² | - |
| 1777940054 | 22.22° C | 51% | 997 hPa | 0 mm | - | 26 W/m² | - |
| 1777939752 | 22.22° C | 49% | 997 hPa | 0 mm | - | 32 W/m² | - |
| 1777939453 | 22.78° C | 47% | 997 hPa | 0 mm | - | 37 W/m² | - |
| 1777939152 | 23.33° C | 42% | 997.1 hPa | 0 mm | - | 41 W/m² | - |
| 1777938852 | 23.33° C | 38% | 997.1 hPa | 0 mm | - | 45 W/m² | - |
| 1777938552 | 23.89° C | 36% | 997.1 hPa | 0 mm | - | 49 W/m² | - |
| 1777938253 | 23.89° C | 37% | 996.9 hPa | 0 mm | - | 54 W/m² | - |
| 1777937953 | 24.44° C | 36% | 996.9 hPa | 0 mm | - | 59 W/m² | - |
| 1777937652 | 24.44° C | 36% | 996.9 hPa | 0 mm | - | 63 W/m² | - |
| 1777937352 | 24.44° C | 35% | 997 hPa | 0 mm | - | 72 W/m² | - |
| 1777937052 | 25° C | 34% | 997.1 hPa | 0 mm | - | 159 W/m² | - |
| 1777936754 | 25° C | 34% | 997.2 hPa | 0 mm | - | 180 W/m² | - |
| 1777936453 | 25° C | 35% | 997.3 hPa | 0 mm | - | 193 W/m² | - |
| 1777936153 | 25° C | 34% | 997.4 hPa | 0 mm | - | 188 W/m² | - |
| 1777935862 | 25° C | 35% | 997.5 hPa | 0 mm | - | 208 W/m² | - |
| 1777935552 | 24.44° C | 36% | 997.6 hPa | 0 mm | - | 250 W/m² | - |
| 1777935252 | 24.44° C | 36% | 997.6 hPa | 0 mm | - | 272 W/m² | - |
| 1777934953 | 24.44° C | 36% | 997.7 hPa | 0 mm | - | 208 W/m² | - |
| 1777934652 | 24.44° C | 36% | 997.8 hPa | 0 mm | - | 205 W/m² | - |
* Rain latest hour (hover to see other rain measurements)
** Current wind speed in m/s (hover to see current wind gust speed)